sensor_id;sensor_type;location;lat;lon;timestamp;temperature;humidity
21648;DHT22;10985;54.182;7.890;2023-03-13T00:01:55;7.00;99.90
21648;DHT22;10985;54.182;7.890;2023-03-13T00:04:21;7.10;99.90
21648;DHT22;10985;54.182;7.890;2023-03-13T00:06:46;7.00;99.90
21648;DHT22;10985;54.182;7.890;2023-03-13T00:09:14;7.10;99.90
21648;DHT22;10985;54.182;7.890;2023-03-13T00:11:40;7.10;99.90
21648;DHT22;10985;54.182;7.890;2023-03-13T00:14:06;7.10;99.90
21648;DHT22;10985;54.182;7.890;2023-03-13T00:16:33;7.10;99.90
21648;DHT22;10985;54.182;7.890;2023-03-13T00:19:00;7.10;99.90
21648;DHT22;10985;54.182;7.890;2023-03-13T00:21:27;7.10;99.90
21648;DHT22;10985;54.182;7.890;2023-03-13T00:23:54;7.10;99.90
21648;DHT22;10985;54.182;7.890;2023-03-13T00:26:23;7.10;99.90
21648;DHT22;10985;54.182;7.890;2023-03-13T00:28:48;7.20;99.90
21648;DHT22;10985;54.182;7.890;2023-03-13T00:31:17;7.20;99.90
21648;DHT22;10985;54.182;7.890;2023-03-13T00:33:45;7.20;99.90
21648;DHT22;10985;54.182;7.890;2023-03-13T00:36:17;7.20;99.90
21648;DHT22;10985;54.182;7.890;2023-03-13T00:38:43;7.20;99.90
21648;DHT22;10985;54.182;7.890;2023-03-13T00:41:11;7.20;99.90
21648;DHT22;10985;54.182;7.890;2023-03-13T00:43:37;7.20;99.90
21648;DHT22;10985;54.182;7.890;2023-03-13T00:46:03;7.20;99.90
21648;DHT22;10985;54.182;7.890;2023-03-13T00:48:29;7.20;99.90
21648;DHT22;10985;54.182;7.890;2023-03-13T00:50:55;7.20;99.90
21648;DHT22;10985;54.182;7.890;2023-03-13T00:53:21;7.20;99.90
21648;DHT22;10985;54.182;7.890;2023-03-13T00:58:20;7.20;99.90
21648;DHT22;10985;54.182;7.890;2023-03-13T01:00:45;7.20;99.90
21648;DHT22;10985;54.182;7.890;2023-03-13T01:03:11;7.30;99.90
21648;DHT22;10985;54.182;7.890;2023-03-13T01:05:36;7.30;99.90
21648;DHT22;10985;54.182;7.890;2023-03-13T01:08:02;7.30;99.90
21648;DHT22;10985;54.182;7.890;2023-03-13T01:10:27;7.30;99.90
21648;DHT22;10985;54.182;7.890;2023-03-13T01:12:53;7.30;99.90
21648;DHT22;10985;54.182;7.890;2023-03-13T01:15:18;7.30;99.90
21648;DHT22;10985;54.182;7.890;2023-03-13T01:17:44;7.30;99.90
21648;DHT22;10985;54.182;7.890;2023-03-13T01:20:11;7.30;99.90
21648;DHT22;10985;54.182;7.890;2023-03-13T01:22:36;7.30;99.90
21648;DHT22;10985;54.182;7.890;2023-03-13T01:25:03;7.30;99.90
21648;DHT22;10985;54.182;7.890;2023-03-13T01:27:29;7.30;99.90
21648;DHT22;10985;54.182;7.890;2023-03-13T01:29:54;7.20;99.90
21648;DHT22;10985;54.182;7.890;2023-03-13T01:32:20;7.20;99.90
21648;DHT22;10985;54.182;7.890;2023-03-13T01:34:45;7.20;99.90
21648;DHT22;10985;54.182;7.890;2023-03-13T01:37:11;7.20;99.90
21648;DHT22;10985;54.182;7.890;2023-03-13T01:39:36;7.20;99.90
21648;DHT22;10985;54.182;7.890;2023-03-13T01:42:03;7.20;99.90
21648;DHT22;10985;54.182;7.890;2023-03-13T01:44:29;7.20;99.90
21648;DHT22;10985;54.182;7.890;2023-03-13T01:46:54;7.20;99.90
21648;DHT22;10985;54.182;7.890;2023-03-13T01:49:21;7.20;99.90
21648;DHT22;10985;54.182;7.890;2023-03-13T01:52:25;7.20;99.90
21648;DHT22;10985;54.182;7.890;2023-03-13T01:55:13;7.20;99.90
21648;DHT22;10985;54.182;7.890;2023-03-13T01:57:47;7.20;99.90
21648;DHT22;10985;54.182;7.890;2023-03-13T02:00:17;7.20;99.90
21648;DHT22;10985;54.182;7.890;2023-03-13T02:02:47;7.30;99.90
21648;DHT22;10985;54.182;7.890;2023-03-13T02:05:16;7.30;99.90
21648;DHT22;10985;54.182;7.890;2023-03-13T02:08:02;7.30;99.90
21648;DHT22;10985;54.182;7.890;2023-03-13T02:10:30;7.30;99.90
21648;DHT22;10985;54.182;7.890;2023-03-13T02:12:56;7.20;99.90
21648;DHT22;10985;54.182;7.890;2023-03-13T02:15:25;7.30;99.90
21648;DHT22;10985;54.182;7.890;2023-03-13T02:17:51;7.30;99.90
21648;DHT22;10985;54.182;7.890;2023-03-13T02:20:20;7.20;99.90
21648;DHT22;10985;54.182;7.890;2023-03-13T02:22:53;7.30;99.90
21648;DHT22;10985;54.182;7.890;2023-03-13T02:27:51;7.30;99.90
21648;DHT22;10985;54.182;7.890;2023-03-13T02:30:19;7.30;99.90
21648;DHT22;10985;54.182;7.890;2023-03-13T02:32:45;7.30;99.90
21648;DHT22;10985;54.182;7.890;2023-03-13T02:35:13;7.30;99.90
21648;DHT22;10985;54.182;7.890;2023-03-13T02:37:43;7.20;99.90
21648;DHT22;10985;54.182;7.890;2023-03-13T02:40:13;7.20;99.90
21648;DHT22;10985;54.182;7.890;2023-03-13T02:42:41;7.30;99.90
21648;DHT22;10985;54.182;7.890;2023-03-13T02:45:08;7.20;99.90
21648;DHT22;10985;54.182;7.890;2023-03-13T02:47:34;7.20;99.90
21648;DHT22;10985;54.182;7.890;2023-03-13T02:49:59;7.20;99.90
21648;DHT22;10985;54.182;7.890;2023-03-13T02:52:28;7.20;99.90
21648;DHT22;10985;54.182;7.890;2023-03-13T02:54:58;7.20;99.90
21648;DHT22;10985;54.182;7.890;2023-03-13T02:57:25;7.20;99.90
21648;DHT22;10985;54.182;7.890;2023-03-13T02:59:50;7.20;99.90
21648;DHT22;10985;54.182;7.890;2023-03-13T03:02:16;7.20;99.90
21648;DHT22;10985;54.182;7.890;2023-03-13T03:04:41;7.20;99.90
21648;DHT22;10985;54.182;7.890;2023-03-13T03:07:07;7.20;99.90
21648;DHT22;10985;54.182;7.890;2023-03-13T03:09:32;7.20;99.90
21648;DHT22;10985;54.182;7.890;2023-03-13T03:11:58;7.20;99.90
21648;DHT22;10985;54.182;7.890;2023-03-13T03:14:23;7.20;99.90
21648;DHT22;10985;54.182;7.890;2023-03-13T03:16:49;7.20;99.90
21648;DHT22;10985;54.182;7.890;2023-03-13T03:19:14;7.20;99.90
21648;DHT22;10985;54.182;7.890;2023-03-13T03:21:40;7.20;99.90
21648;DHT22;10985;54.182;7.890;2023-03-13T03:24:05;7.20;99.90
21648;DHT22;10985;54.182;7.890;2023-03-13T03:26:31;7.20;99.90
21648;DHT22;10985;54.182;7.890;2023-03-13T03:28:57;7.20;99.90
21648;DHT22;10985;54.182;7.890;2023-03-13T03:31:22;7.20;99.90
21648;DHT22;10985;54.182;7.890;2023-03-13T03:33:48;7.20;99.90
21648;DHT22;10985;54.182;7.890;2023-03-13T03:36:16;7.10;99.90
21648;DHT22;10985;54.182;7.890;2023-03-13T03:38:42;7.20;99.90
21648;DHT22;10985;54.182;7.890;2023-03-13T03:41:09;7.20;99.90
21648;DHT22;10985;54.182;7.890;2023-03-13T03:43:35;7.10;99.90
21648;DHT22;10985;54.182;7.890;2023-03-13T03:46:02;7.10;99.90
21648;DHT22;10985;54.182;7.890;2023-03-13T03:48:27;7.10;99.90
21648;DHT22;10985;54.182;7.890;2023-03-13T03:50:53;7.10;99.90
21648;DHT22;10985;54.182;7.890;2023-03-13T03:53:19;7.10;99.90
21648;DHT22;10985;54.182;7.890;2023-03-13T03:55:44;7.10;99.90
21648;DHT22;10985;54.182;7.890;2023-03-13T03:58:10;7.10;99.90
21648;DHT22;10985;54.182;7.890;2023-03-13T04:00:35;7.10;99.90
21648;DHT22;10985;54.182;7.890;2023-03-13T04:03:01;7.10;99.90
21648;DHT22;10985;54.182;7.890;2023-03-13T04:05:27;7.10;99.90
21648;DHT22;10985;54.182;7.890;2023-03-13T04:07:52;7.10;99.90
21648;DHT22;10985;54.182;7.890;2023-03-13T04:10:18;7.10;99.90
21648;DHT22;10985;54.182;7.890;2023-03-13T04:12:43;7.10;99.90
21648;DHT22;10985;54.182;7.890;2023-03-13T04:15:09;7.10;99.90
21648;DHT22;10985;54.182;7.890;2023-03-13T04:17:35;7.10;99.90
21648;DHT22;10985;54.182;7.890;2023-03-13T04:20:00;7.10;99.90
21648;DHT22;10985;54.182;7.890;2023-03-13T04:22:26;7.10;99.90
21648;DHT22;10985;54.182;7.890;2023-03-13T04:24:51;7.10;99.90
21648;DHT22;10985;54.182;7.890;2023-03-13T04:27:17;7.10;99.90
21648;DHT22;10985;54.182;7.890;2023-03-13T04:29:43;7.10;99.90
21648;DHT22;10985;54.182;7.890;2023-03-13T04:32:08;7.10;99.90
21648;DHT22;10985;54.182;7.890;2023-03-13T04:34:34;7.10;99.90
21648;DHT22;10985;54.182;7.890;2023-03-13T04:36:59;7.10;99.90
21648;DHT22;10985;54.182;7.890;2023-03-13T04:39:25;7.10;99.90
21648;DHT22;10985;54.182;7.890;2023-03-13T04:41:51;7.10;99.90
21648;DHT22;10985;54.182;7.890;2023-03-13T04:44:17;7.10;99.90
21648;DHT22;10985;54.182;7.890;2023-03-13T04:46:42;7.10;99.90
21648;DHT22;10985;54.182;7.890;2023-03-13T04:49:08;7.10;99.90
21648;DHT22;10985;54.182;7.890;2023-03-13T04:51:33;7.10;99.90
21648;DHT22;10985;54.182;7.890;2023-03-13T04:53:59;7.10;99.90
21648;DHT22;10985;54.182;7.890;2023-03-13T04:56:26;7.10;99.90
21648;DHT22;10985;54.182;7.890;2023-03-13T04:58:51;7.10;99.90
21648;DHT22;10985;54.182;7.890;2023-03-13T05:01:18;7.10;99.90
21648;DHT22;10985;54.182;7.890;2023-03-13T05:03:43;7.10;99.90
21648;DHT22;10985;54.182;7.890;2023-03-13T05:06:09;7.10;99.90
21648;DHT22;10985;54.182;7.890;2023-03-13T05:08:35;7.10;99.90
21648;DHT22;10985;54.182;7.890;2023-03-13T05:11:01;7.20;99.90
21648;DHT22;10985;54.182;7.890;2023-03-13T05:13:27;7.10;99.90
21648;DHT22;10985;54.182;7.890;2023-03-13T05:15:53;7.10;99.90
21648;DHT22;10985;54.182;7.890;2023-03-13T05:18:19;7.10;99.90
21648;DHT22;10985;54.182;7.890;2023-03-13T05:20:44;7.10;99.90
21648;DHT22;10985;54.182;7.890;2023-03-13T05:23:10;7.20;99.90
21648;DHT22;10985;54.182;7.890;2023-03-13T05:25:35;7.10;99.90
21648;DHT22;10985;54.182;7.890;2023-03-13T05:28:01;7.20;99.90
21648;DHT22;10985;54.182;7.890;2023-03-13T05:30:27;7.20;99.90
21648;DHT22;10985;54.182;7.890;2023-03-13T05:32:52;7.20;99.90
21648;DHT22;10985;54.182;7.890;2023-03-13T05:35:18;7.20;99.90
21648;DHT22;10985;54.182;7.890;2023-03-13T05:37:43;7.30;99.90
21648;DHT22;10985;54.182;7.890;2023-03-13T05:40:11;7.30;99.90
21648;DHT22;10985;54.182;7.890;2023-03-13T05:42:37;7.40;99.90
21648;DHT22;10985;54.182;7.890;2023-03-13T05:45:03;7.40;99.90
21648;DHT22;10985;54.182;7.890;2023-03-13T05:47:28;7.50;99.90
21648;DHT22;10985;54.182;7.890;2023-03-13T05:49:54;7.50;99.90
21648;DHT22;10985;54.182;7.890;2023-03-13T05:52:19;7.50;99.90
21648;DHT22;10985;54.182;7.890;2023-03-13T05:54:45;7.60;99.90
21648;DHT22;10985;54.182;7.890;2023-03-13T05:57:10;7.60;99.90
21648;DHT22;10985;54.182;7.890;2023-03-13T05:59:36;7.70;99.90
21648;DHT22;10985;54.182;7.890;2023-03-13T06:02:01;7.70;99.90
21648;DHT22;10985;54.182;7.890;2023-03-13T06:04:27;7.80;99.90
21648;DHT22;10985;54.182;7.890;2023-03-13T06:06:52;7.80;99.90
21648;DHT22;10985;54.182;7.890;2023-03-13T06:09:18;7.80;99.90
21648;DHT22;10985;54.182;7.890;2023-03-13T06:11:44;7.80;99.90
21648;DHT22;10985;54.182;7.890;2023-03-13T06:14:09;7.90;99.90
21648;DHT22;10985;54.182;7.890;2023-03-13T06:16:35;7.90;99.90
21648;DHT22;10985;54.182;7.890;2023-03-13T06:19:00;7.90;99.90
21648;DHT22;10985;54.182;7.890;2023-03-13T06:21:26;7.90;99.90
21648;DHT22;10985;54.182;7.890;2023-03-13T06:23:54;8.00;99.90
21648;DHT22;10985;54.182;7.890;2023-03-13T06:26:19;7.90;99.90
21648;DHT22;10985;54.182;7.890;2023-03-13T06:28:45;8.00;99.90
21648;DHT22;10985;54.182;7.890;2023-03-13T06:31:10;8.00;99.90
21648;DHT22;10985;54.182;7.890;2023-03-13T06:33:36;8.10;99.90
21648;DHT22;10985;54.182;7.890;2023-03-13T06:36:03;8.10;99.90
21648;DHT22;10985;54.182;7.890;2023-03-13T06:38:29;8.10;99.90
21648;DHT22;10985;54.182;7.890;2023-03-13T06:40:55;8.20;99.90
21648;DHT22;10985;54.182;7.890;2023-03-13T06:43:20;8.20;99.90
21648;DHT22;10985;54.182;7.890;2023-03-13T06:45:46;8.20;99.90
21648;DHT22;10985;54.182;7.890;2023-03-13T06:48:11;8.20;99.90
21648;DHT22;10985;54.182;7.890;2023-03-13T06:50:38;8.30;99.90
21648;DHT22;10985;54.182;7.890;2023-03-13T06:53:04;8.30;99.90
21648;DHT22;10985;54.182;7.890;2023-03-13T06:55:29;8.30;99.90
21648;DHT22;10985;54.182;7.890;2023-03-13T06:57:54;8.30;99.90
21648;DHT22;10985;54.182;7.890;2023-03-13T07:00:20;8.30;99.90
21648;DHT22;10985;54.182;7.890;2023-03-13T07:02:46;8.30;99.90
21648;DHT22;10985;54.182;7.890;2023-03-13T07:05:11;8.30;99.90
21648;DHT22;10985;54.182;7.890;2023-03-13T07:07:41;8.40;99.90
21648;DHT22;10985;54.182;7.890;2023-03-13T07:10:08;8.40;99.90
21648;DHT22;10985;54.182;7.890;2023-03-13T07:12:35;8.40;99.90
21648;DHT22;10985;54.182;7.890;2023-03-13T07:15:01;8.40;99.90
21648;DHT22;10985;54.182;7.890;2023-03-13T07:17:26;8.40;99.90
21648;DHT22;10985;54.182;7.890;2023-03-13T07:19:51;8.40;99.90
21648;DHT22;10985;54.182;7.890;2023-03-13T07:22:17;8.40;99.90
21648;DHT22;10985;54.182;7.890;2023-03-13T07:24:42;8.40;99.90
21648;DHT22;10985;54.182;7.890;2023-03-13T07:27:08;8.40;99.90
21648;DHT22;10985;54.182;7.890;2023-03-13T07:29:33;8.40;99.90
21648;DHT22;10985;54.182;7.890;2023-03-13T07:31:59;8.40;99.90
21648;DHT22;10985;54.182;7.890;2023-03-13T07:34:25;8.50;99.90
21648;DHT22;10985;54.182;7.890;2023-03-13T07:36:50;8.50;99.90
21648;DHT22;10985;54.182;7.890;2023-03-13T07:39:16;8.50;99.90
21648;DHT22;10985;54.182;7.890;2023-03-13T07:41:41;8.50;99.90
21648;DHT22;10985;54.182;7.890;2023-03-13T07:44:07;8.60;99.90
21648;DHT22;10985;54.182;7.890;2023-03-13T07:46:32;8.60;99.90
21648;DHT22;10985;54.182;7.890;2023-03-13T07:48:58;8.60;99.90
21648;DHT22;10985;54.182;7.890;2023-03-13T07:51:24;8.60;99.90
21648;DHT22;10985;54.182;7.890;2023-03-13T07:53:51;8.60;99.90
21648;DHT22;10985;54.182;7.890;2023-03-13T07:56:20;8.60;99.90
21648;DHT22;10985;54.182;7.890;2023-03-13T07:58:46;8.60;99.90
21648;DHT22;10985;54.182;7.890;2023-03-13T08:01:18;8.70;99.90
21648;DHT22;10985;54.182;7.890;2023-03-13T08:03:44;8.70;99.90
21648;DHT22;10985;54.182;7.890;2023-03-13T08:06:14;8.70;99.90
21648;DHT22;10985;54.182;7.890;2023-03-13T08:08:41;8.70;99.90
21648;DHT22;10985;54.182;7.890;2023-03-13T08:11:21;8.70;99.90
21648;DHT22;10985;54.182;7.890;2023-03-13T08:13:48;8.70;99.90
21648;DHT22;10985;54.182;7.890;2023-03-13T08:16:19;8.70;99.90
21648;DHT22;10985;54.182;7.890;2023-03-13T08:18:47;8.80;99.90
21648;DHT22;10985;54.182;7.890;2023-03-13T08:21:18;8.80;99.90
21648;DHT22;10985;54.182;7.890;2023-03-13T08:23:45;8.70;99.90
21648;DHT22;10985;54.182;7.890;2023-03-13T08:26:13;8.70;99.90
21648;DHT22;10985;54.182;7.890;2023-03-13T08:28:40;8.70;99.90
21648;DHT22;10985;54.182;7.890;2023-03-13T08:31:14;8.70;99.90
21648;DHT22;10985;54.182;7.890;2023-03-13T08:33:42;8.70;99.90
21648;DHT22;10985;54.182;7.890;2023-03-13T08:36:22;8.70;99.90
21648;DHT22;10985;54.182;7.890;2023-03-13T08:38:50;8.70;99.90
21648;DHT22;10985;54.182;7.890;2023-03-13T08:41:17;8.80;99.90
21648;DHT22;10985;54.182;7.890;2023-03-13T08:43:44;8.70;99.90
21648;DHT22;10985;54.182;7.890;2023-03-13T08:46:10;8.70;99.90
21648;DHT22;10985;54.182;7.890;2023-03-13T08:48:35;8.80;99.90
21648;DHT22;10985;54.182;7.890;2023-03-13T08:51:02;8.80;99.90
21648;DHT22;10985;54.182;7.890;2023-03-13T08:53:28;8.80;99.90
21648;DHT22;10985;54.182;7.890;2023-03-13T08:55:54;8.80;99.90
21648;DHT22;10985;54.182;7.890;2023-03-13T08:58:20;8.80;99.90
21648;DHT22;10985;54.182;7.890;2023-03-13T09:00:45;8.90;99.90
21648;DHT22;10985;54.182;7.890;2023-03-13T09:03:11;8.90;99.90
21648;DHT22;10985;54.182;7.890;2023-03-13T09:05:37;8.90;99.90
21648;DHT22;10985;54.182;7.890;2023-03-13T09:08:03;9.00;99.90
21648;DHT22;10985;54.182;7.890;2023-03-13T09:10:29;9.00;99.90
21648;DHT22;10985;54.182;7.890;2023-03-13T09:12:54;9.10;99.90
21648;DHT22;10985;54.182;7.890;2023-03-13T09:15:20;9.10;99.90
21648;DHT22;10985;54.182;7.890;2023-03-13T09:17:45;9.20;99.90
21648;DHT22;10985;54.182;7.890;2023-03-13T09:20:11;9.20;99.90
21648;DHT22;10985;54.182;7.890;2023-03-13T09:22:36;9.20;99.90
21648;DHT22;10985;54.182;7.890;2023-03-13T09:25:02;9.30;99.90
21648;DHT22;10985;54.182;7.890;2023-03-13T09:27:27;9.40;99.90
21648;DHT22;10985;54.182;7.890;2023-03-13T09:29:53;9.40;99.90
21648;DHT22;10985;54.182;7.890;2023-03-13T09:32:19;9.50;99.90
21648;DHT22;10985;54.182;7.890;2023-03-13T09:34:45;9.50;99.90
21648;DHT22;10985;54.182;7.890;2023-03-13T09:37:11;9.70;99.90
21648;DHT22;10985;54.182;7.890;2023-03-13T09:39:36;9.70;99.90
21648;DHT22;10985;54.182;7.890;2023-03-13T09:42:39;9.80;99.90
21648;DHT22;10985;54.182;7.890;2023-03-13T09:45:15;9.90;99.90
21648;DHT22;10985;54.182;7.890;2023-03-13T09:47:53;10.00;99.90
21648;DHT22;10985;54.182;7.890;2023-03-13T09:50:30;10.20;99.90
21648;DHT22;10985;54.182;7.890;2023-03-13T09:53:03;10.30;99.90
21648;DHT22;10985;54.182;7.890;2023-03-13T09:55:32;10.60;99.90
21648;DHT22;10985;54.182;7.890;2023-03-13T09:58:02;10.80;99.90
21648;DHT22;10985;54.182;7.890;2023-03-13T10:00:33;11.00;99.90
21648;DHT22;10985;54.182;7.890;2023-03-13T10:05:45;11.40;99.90
21648;DHT22;10985;54.182;7.890;2023-03-13T10:08:16;11.60;99.90
21648;DHT22;10985;54.182;7.890;2023-03-13T10:10:43;11.90;99.90
21648;DHT22;10985;54.182;7.890;2023-03-13T10:13:27;12.10;99.90
21648;DHT22;10985;54.182;7.890;2023-03-13T10:16:00;12.30;99.90
21648;DHT22;10985;54.182;7.890;2023-03-13T10:18:26;12.50;99.90
21648;DHT22;10985;54.182;7.890;2023-03-13T10:20:56;12.70;99.90
21648;DHT22;10985;54.182;7.890;2023-03-13T10:25:57;13.10;99.90
21648;DHT22;10985;54.182;7.890;2023-03-13T10:28:23;13.20;99.90
21648;DHT22;10985;54.182;7.890;2023-03-13T10:30:52;13.40;99.90
21648;DHT22;10985;54.182;7.890;2023-03-13T10:33:22;13.60;99.90
21648;DHT22;10985;54.182;7.890;2023-03-13T10:36:00;13.80;99.90
21648;DHT22;10985;54.182;7.890;2023-03-13T10:38:26;13.90;99.90
21648;DHT22;10985;54.182;7.890;2023-03-13T10:41:08;14.10;99.90
21648;DHT22;10985;54.182;7.890;2023-03-13T10:43:34;14.30;99.90
21648;DHT22;10985;54.182;7.890;2023-03-13T10:45:59;14.30;99.90
21648;DHT22;10985;54.182;7.890;2023-03-13T10:48:29;14.60;99.90
21648;DHT22;10985;54.182;7.890;2023-03-13T10:50:56;14.70;99.90
21648;DHT22;10985;54.182;7.890;2023-03-13T10:55:56;15.00;99.90
21648;DHT22;10985;54.182;7.890;2023-03-13T10:58:34;15.00;99.90
21648;DHT22;10985;54.182;7.890;2023-03-13T11:01:30;15.20;99.90
21648;DHT22;10985;54.182;7.890;2023-03-13T11:03:57;15.30;99.90
21648;DHT22;10985;54.182;7.890;2023-03-13T11:06:32;15.60;99.90
21648;DHT22;10985;54.182;7.890;2023-03-13T11:11:26;15.80;99.90
21648;DHT22;10985;54.182;7.890;2023-03-13T11:14:06;15.90;99.90
21648;DHT22;10985;54.182;7.890;2023-03-13T11:16:35;16.00;99.90
21648;DHT22;10985;54.182;7.890;2023-03-13T11:27:36;16.40;99.90
21648;DHT22;10985;54.182;7.890;2023-03-13T11:30:18;16.30;99.90
21648;DHT22;10985;54.182;7.890;2023-03-13T11:32:55;16.40;99.90
21648;DHT22;10985;54.182;7.890;2023-03-13T11:35:47;16.70;99.90
21648;DHT22;10985;54.182;7.890;2023-03-13T11:44:05;16.90;99.90
21648;DHT22;10985;54.182;7.890;2023-03-13T11:55:01;17.10;99.90
21648;DHT22;10985;54.182;7.890;2023-03-13T11:57:36;17.00;99.90
21648;DHT22;10985;54.182;7.890;2023-03-13T12:00:27;17.20;99.90
21648;DHT22;10985;54.182;7.890;2023-03-13T12:05:48;17.30;99.90
21648;DHT22;10985;54.182;7.890;2023-03-13T12:08:41;17.30;99.90
21648;DHT22;10985;54.182;7.890;2023-03-13T12:11:21;17.00;99.90
21648;DHT22;10985;54.182;7.890;2023-03-13T12:14:24;16.60;99.90
21648;DHT22;10985;54.182;7.890;2023-03-13T12:17:07;16.30;99.90
21648;DHT22;10985;54.182;7.890;2023-03-13T12:19:54;16.30;99.90
21648;DHT22;10985;54.182;7.890;2023-03-13T12:22:27;16.20;99.90
21648;DHT22;10985;54.182;7.890;2023-03-13T12:25:05;16.10;99.90
21648;DHT22;10985;54.182;7.890;2023-03-13T12:27:40;15.90;99.90
21648;DHT22;10985;54.182;7.890;2023-03-13T12:31:08;16.00;99.90
21648;DHT22;10985;54.182;7.890;2023-03-13T12:33:20;15.90;99.90
21648;DHT22;10985;54.182;7.890;2023-03-13T12:38:36;15.30;99.90
21648;DHT22;10985;54.182;7.890;2023-03-13T12:41:16;14.80;99.90
21648;DHT22;10985;54.182;7.890;2023-03-13T12:43:44;14.50;99.90
21648;DHT22;10985;54.182;7.890;2023-03-13T12:46:36;14.10;99.90
21648;DHT22;10985;54.182;7.890;2023-03-13T12:55:36;13.10;99.90
21648;DHT22;10985;54.182;7.890;2023-03-13T12:58:21;12.90;99.90
21648;DHT22;10985;54.182;7.890;2023-03-13T13:00:51;12.80;99.90
21648;DHT22;10985;54.182;7.890;2023-03-13T13:03:35;13.00;99.90
21648;DHT22;10985;54.182;7.890;2023-03-13T13:06:13;13.30;99.90
21648;DHT22;10985;54.182;7.890;2023-03-13T13:09:00;13.50;99.90
21648;DHT22;10985;54.182;7.890;2023-03-13T13:13:58;14.00;99.90
21648;DHT22;10985;54.182;7.890;2023-03-13T13:16:25;14.20;99.90
21648;DHT22;10985;54.182;7.890;2023-03-13T13:18:51;14.30;99.90
21648;DHT22;10985;54.182;7.890;2023-03-13T13:21:23;14.50;99.90
21648;DHT22;10985;54.182;7.890;2023-03-13T13:23:51;14.60;99.90
21648;DHT22;10985;54.182;7.890;2023-03-13T13:29:50;14.60;99.90
21648;DHT22;10985;54.182;7.890;2023-03-13T13:36:57;14.40;99.90
21648;DHT22;10985;54.182;7.890;2023-03-13T13:39:38;14.20;99.90
21648;DHT22;10985;54.182;7.890;2023-03-13T13:45:01;13.60;99.90
21648;DHT22;10985;54.182;7.890;2023-03-13T13:47:28;13.30;99.90
21648;DHT22;10985;54.182;7.890;2023-03-13T13:49:58;13.00;99.90
21648;DHT22;10985;54.182;7.890;2023-03-13T13:52:34;12.90;99.90
21648;DHT22;10985;54.182;7.890;2023-03-13T13:55:01;12.80;99.90
21648;DHT22;10985;54.182;7.890;2023-03-13T13:57:31;12.60;99.90
21648;DHT22;10985;54.182;7.890;2023-03-13T14:00:15;12.50;99.90
21648;DHT22;10985;54.182;7.890;2023-03-13T14:02:54;12.30;99.90
21648;DHT22;10985;54.182;7.890;2023-03-13T14:05:24;12.20;99.90
21648;DHT22;10985;54.182;7.890;2023-03-13T14:07:55;12.20;99.90
21648;DHT22;10985;54.182;7.890;2023-03-13T14:12:58;12.10;99.90
21648;DHT22;10985;54.182;7.890;2023-03-13T14:15:26;12.00;99.90
21648;DHT22;10985;54.182;7.890;2023-03-13T14:17:57;12.00;99.90
21648;DHT22;10985;54.182;7.890;2023-03-13T14:20:50;12.00;99.90
21648;DHT22;10985;54.182;7.890;2023-03-13T14:23:38;12.00;99.90
21648;DHT22;10985;54.182;7.890;2023-03-13T14:26:18;11.90;99.90
21648;DHT22;10985;54.182;7.890;2023-03-13T14:28:50;11.80;99.90
21648;DHT22;10985;54.182;7.890;2023-03-13T14:31:37;11.80;99.90
21648;DHT22;10985;54.182;7.890;2023-03-13T14:34:05;11.70;99.90
21648;DHT22;10985;54.182;7.890;2023-03-13T14:36:51;11.70;99.90
21648;DHT22;10985;54.182;7.890;2023-03-13T14:39:36;11.70;99.90
21648;DHT22;10985;54.182;7.890;2023-03-13T14:42:05;11.60;99.90
21648;DHT22;10985;54.182;7.890;2023-03-13T14:44:32;11.60;99.90
21648;DHT22;10985;54.182;7.890;2023-03-13T14:47:07;11.60;99.90
21648;DHT22;10985;54.182;7.890;2023-03-13T14:49:33;11.60;99.90
21648;DHT22;10985;54.182;7.890;2023-03-13T14:52:02;11.50;99.90
21648;DHT22;10985;54.182;7.890;2023-03-13T14:54:34;11.50;99.90
21648;DHT22;10985;54.182;7.890;2023-03-13T14:59:35;11.40;99.90
21648;DHT22;10985;54.182;7.890;2023-03-13T15:02:09;11.40;99.90
21648;DHT22;10985;54.182;7.890;2023-03-13T15:04:54;11.40;99.90
21648;DHT22;10985;54.182;7.890;2023-03-13T15:07:21;11.30;99.90
21648;DHT22;10985;54.182;7.890;2023-03-13T15:09:48;11.30;99.90
21648;DHT22;10985;54.182;7.890;2023-03-13T15:12:20;11.30;99.90
21648;DHT22;10985;54.182;7.890;2023-03-13T15:14:48;11.30;99.90
21648;DHT22;10985;54.182;7.890;2023-03-13T15:17:20;11.30;99.90
21648;DHT22;10985;54.182;7.890;2023-03-13T15:19:54;11.30;99.90
21648;DHT22;10985;54.182;7.890;2023-03-13T15:22:31;11.30;99.90
21648;DHT22;10985;54.182;7.890;2023-03-13T15:24:57;11.30;99.90
21648;DHT22;10985;54.182;7.890;2023-03-13T15:27:24;11.20;99.90
21648;DHT22;10985;54.182;7.890;2023-03-13T15:29:50;11.10;99.90
21648;DHT22;10985;54.182;7.890;2023-03-13T15:32:23;11.10;99.90
21648;DHT22;10985;54.182;7.890;2023-03-13T15:34:49;11.10;99.90
21648;DHT22;10985;54.182;7.890;2023-03-13T15:37:14;11.10;99.90
21648;DHT22;10985;54.182;7.890;2023-03-13T15:39:40;11.10;99.90
21648;DHT22;10985;54.182;7.890;2023-03-13T15:42:06;11.10;99.90
21648;DHT22;10985;54.182;7.890;2023-03-13T15:44:32;11.10;99.90
21648;DHT22;10985;54.182;7.890;2023-03-13T15:46:57;11.10;99.90
21648;DHT22;10985;54.182;7.890;2023-03-13T15:49:23;11.10;99.90
21648;DHT22;10985;54.182;7.890;2023-03-13T15:51:49;11.10;99.90
21648;DHT22;10985;54.182;7.890;2023-03-13T15:54:14;11.10;99.90
21648;DHT22;10985;54.182;7.890;2023-03-13T15:56:40;11.10;99.90
21648;DHT22;10985;54.182;7.890;2023-03-13T15:59:10;11.00;99.90
21648;DHT22;10985;54.182;7.890;2023-03-13T16:01:36;11.00;99.90
21648;DHT22;10985;54.182;7.890;2023-03-13T16:04:02;11.00;99.90
21648;DHT22;10985;54.182;7.890;2023-03-13T16:06:28;11.00;99.90
21648;DHT22;10985;54.182;7.890;2023-03-13T16:08:56;11.00;99.90
21648;DHT22;10985;54.182;7.890;2023-03-13T16:11:24;11.00;99.90
21648;DHT22;10985;54.182;7.890;2023-03-13T16:13:49;11.00;99.90
21648;DHT22;10985;54.182;7.890;2023-03-13T16:16:21;11.00;99.90
21648;DHT22;10985;54.182;7.890;2023-03-13T16:18:48;11.00;99.90
21648;DHT22;10985;54.182;7.890;2023-03-13T16:21:29;10.90;99.90
21648;DHT22;10985;54.182;7.890;2023-03-13T16:23:54;10.90;99.90
21648;DHT22;10985;54.182;7.890;2023-03-13T16:26:23;10.90;99.90
21648;DHT22;10985;54.182;7.890;2023-03-13T16:28:49;10.80;99.90
21648;DHT22;10985;54.182;7.890;2023-03-13T16:31:20;10.90;99.90
21648;DHT22;10985;54.182;7.890;2023-03-13T16:33:46;10.80;99.90
21648;DHT22;10985;54.182;7.890;2023-03-13T16:36:14;10.80;99.90
21648;DHT22;10985;54.182;7.890;2023-03-13T16:38:40;10.80;99.90
21648;DHT22;10985;54.182;7.890;2023-03-13T16:41:05;10.80;99.90
21648;DHT22;10985;54.182;7.890;2023-03-13T16:43:31;10.70;99.90
21648;DHT22;10985;54.182;7.890;2023-03-13T16:45:56;10.70;99.90
21648;DHT22;10985;54.182;7.890;2023-03-13T16:48:22;10.70;99.90
21648;DHT22;10985;54.182;7.890;2023-03-13T16:50:47;10.70;99.90
21648;DHT22;10985;54.182;7.890;2023-03-13T16:53:13;10.70;99.90
21648;DHT22;10985;54.182;7.890;2023-03-13T16:55:38;10.60;99.90
21648;DHT22;10985;54.182;7.890;2023-03-13T16:58:04;10.60;99.90
21648;DHT22;10985;54.182;7.890;2023-03-13T17:00:30;10.60;99.90